Messwerte Mwanza

Temperatur

Temperatur
°C
1638165600 9.00 9.00 24
1638169200 10.00 10.00 24
1638172800 11.00 11.00 25
1638176400 12.00 12.00 28
1638180000 13.00 13.00 28
1638183600 14.00 14.00 29
1638187200 15.00 15.00 30
1638190800 16.00 16.00 30
1638194400 17.00 17.00 29
1638198000 18.00 18.00 29
1638201600 19.00 19.00 28
1638205200 20.00 20.00
1638208800 21.00 21.00 25
1638212400 22.00 22.00
1638216000 23.00 23.00
1638219600 0.00 0.00 24
1638223200 1.00 1.00
1638226800 2.00 2.00 22
1638230400 3.00 3.00 22
1638234000 4.00 4.00 21
1638237600 5.00 5.00
1638241200 6.00 6.00 21
1638244800 7.00 7.00 21
1638248400 8.00 8.00 23

Aktuellste Messwerte

Wettercharakter
Wetter: recht sonnig
Temperatur
23 °C
Feuchtigkeit
80 %
Wind
0 km/h, -
Luftdruck
1016 hPa
Messzeit: 30. November 2021, 8.00Datenquelle: METAR

Weitere Messstationen in der Nähe

Messstation Temperatur Entfernung
Entebbe 20 °C 285 km
Kigali 18 °C 316 km
Kisumu 23 °C 333 km
Eldoret 12 °C 424 km
Nairobi 16 °C 452 km
Nairobi 16 °C 462 km
Kilimanjaro Flughafen 22 °C 472 km

Wind

Windrichtung Böen Mittelwind
° km/h km/h
1638165600 9.00 8.00 - 9.00 0
1638169200 10.00 9.00 - 10.00 90° 20
1638172800 11.00 10.00 - 11.00 70° 30
1638176400 12.00 11.00 - 12.00 90° 10
1638180000 13.00 12.00 - 13.00 60° 15
1638183600 14.00 13.00 - 14.00 360° 30
1638187200 15.00 14.00 - 15.00 360° 20
1638190800 16.00 15.00 - 16.00 360° 15
1638194400 17.00 16.00 - 17.00 330° 25
1638198000 18.00 17.00 - 18.00 330° 20
1638201600 19.00 18.00 - 19.00 320° 20
1638205200 20.00 19.00 - 20.00
1638208800 21.00 20.00 - 21.00 330° 10
1638212400 22.00 21.00 - 22.00
1638216000 23.00 22.00 - 23.00
1638219600 0.00 23.00 - 0.00 0
1638223200 1.00 0.00 - 1.00
1638226800 2.00 1.00 - 2.00 0
1638230400 3.00 2.00 - 3.00 0
1638234000 4.00 3.00 - 4.00 0
1638237600 5.00 4.00 - 5.00
1638241200 6.00 5.00 - 6.00 0
1638244800 7.00 6.00 - 7.00 90° 10
1638248400 8.00 7.00 - 8.00 0

Ihre Wetterstation

Fehlt Ihre Wetterstation auf unserem Portal?

Schreiben Sie an network@meteonews.ch